createdAt,value
2019-05-19T00:01:24.762Z,33.38
2019-05-19T00:03:54.599Z,36.17
2019-05-19T00:06:24.491Z,35.43
2019-05-19T00:08:54.317Z,35.92
2019-05-19T00:11:24.444Z,36.33
2019-05-19T00:13:55.868Z,37.33
2019-05-19T00:16:25.706Z,38.60
2019-05-19T00:18:55.527Z,41.15
2019-05-19T00:21:25.348Z,41.75
2019-05-19T00:23:55.181Z,39.73
2019-05-19T00:26:25.070Z,42.60
2019-05-19T00:28:55.287Z,41.68
2019-05-19T00:31:25.101Z,41.77
2019-05-19T00:33:54.991Z,42.27
2019-05-19T00:36:24.807Z,41.58
2019-05-19T00:38:54.629Z,43.87
2019-05-19T00:41:24.786Z,41.80
2019-05-19T00:43:54.595Z,42.30
2019-05-19T00:46:25.313Z,41.45
2019-05-19T00:48:56.227Z,43.65
2019-05-19T00:51:26.223Z,45.40
2019-05-19T00:53:56.069Z,45.17
2019-05-19T00:56:26.419Z,45.90
2019-05-19T00:58:58.398Z,45.43
2019-05-19T01:01:28.496Z,46.28
2019-05-19T01:03:59.648Z,47.33
2019-05-19T01:06:29.559Z,49.18
2019-05-19T01:08:59.428Z,48.63
2019-05-19T01:11:29.492Z,46.15
2019-05-19T01:13:59.811Z,48.10
2019-05-19T01:16:29.811Z,50.00
2019-05-19T01:18:59.715Z,49.85
2019-05-19T01:21:30.354Z,52.05
2019-05-19T01:24:00.186Z,50.08
2019-05-19T01:26:30.015Z,51.68
2019-05-19T01:29:00.140Z,52.43
2019-05-19T01:31:30.083Z,53.87
2019-05-19T01:34:00.300Z,55.17
2019-05-19T01:36:30.241Z,56.28
2019-05-19T01:39:00.410Z,59.05
2019-05-19T01:41:30.322Z,58.17
2019-05-19T01:44:00.245Z,58.28
2019-05-19T01:46:30.157Z,58.85
2019-05-19T01:48:59.989Z,62.95
2019-05-19T01:51:29.828Z,61.10
2019-05-19T01:54:00.014Z,64.55
2019-05-19T01:56:30.321Z,64.47
2019-05-19T01:59:00.448Z,61.05
2019-05-19T02:01:30.604Z,62.00
2019-05-19T02:04:00.797Z,63.75
2019-05-19T02:06:31.008Z,62.88
2019-05-19T02:09:01.940Z,62.62
2019-05-19T02:11:32.288Z,60.12
2019-05-19T02:14:03.627Z,61.02
2019-05-19T02:16:33.519Z,65.00
2019-05-19T02:19:03.658Z,62.80
2019-05-19T02:21:33.477Z,60.78
2019-05-19T02:24:03.400Z,64.55
2019-05-19T02:26:34.748Z,66.95
2019-05-19T02:29:04.726Z,62.58
2019-05-19T02:31:34.570Z,65.00
2019-05-19T02:34:04.884Z,65.10
2019-05-19T02:36:35.118Z,66.53
2019-05-19T02:39:07.292Z,66.35
2019-05-19T02:41:39.405Z,68.55
2019-05-19T02:44:09.582Z,67.10
2019-05-19T02:46:41.732Z,69.53
2019-05-19T02:49:14.187Z,71.90
2019-05-19T02:51:46.651Z,74.50
2019-05-19T02:54:17.731Z,72.53
2019-05-19T02:56:48.405Z,74.12
2019-05-19T02:59:20.556Z,77.97
2019-05-19T03:02:04.459Z,79.25
2019-05-19T03:04:34.386Z,80.05
2019-05-19T03:07:04.917Z,81.30
2019-05-19T03:09:34.945Z,81.87
2019-05-19T03:12:04.941Z,82.42
2019-05-19T03:14:34.935Z,85.07
2019-05-19T03:17:04.930Z,83.95
2019-05-19T03:19:34.780Z,81.50
2019-05-19T03:22:05.024Z,88.82
2019-05-19T03:24:34.945Z,86.82
2019-05-19T03:27:05.068Z,91.28
2019-05-19T03:29:36.820Z,83.05
2019-05-19T03:32:20.476Z,85.65
2019-05-19T03:34:50.308Z,85.67
2019-05-19T03:37:20.237Z,88.45
2019-05-19T03:39:50.514Z,89.80
2019-05-19T03:42:20.627Z,92.92
2019-05-19T03:44:50.769Z,91.17
2019-05-19T03:47:20.663Z,88.07
2019-05-19T03:49:50.487Z,89.07
2019-05-19T03:52:20.310Z,92.90
2019-05-19T03:54:50.140Z,88.12
2019-05-19T03:57:19.994Z,93.47
2019-05-19T03:59:49.824Z,91.35
2019-05-19T04:02:19.679Z,85.90
2019-05-19T04:04:49.511Z,86.97
2019-05-19T04:07:19.769Z,84.87
2019-05-19T04:09:49.945Z,84.50
2019-05-19T04:12:19.766Z,80.72
2019-05-19T04:14:49.605Z,76.62
2019-05-19T04:17:19.437Z,69.60
2019-05-19T04:19:49.442Z,67.85
2019-05-19T04:22:19.350Z,58.10
2019-05-19T04:24:49.556Z,54.55
2019-05-19T04:27:19.378Z,54.45
2019-05-19T04:29:49.231Z,49.80
2019-05-19T04:32:23.336Z,48.90
2019-05-19T04:34:53.557Z,47.83
2019-05-19T04:37:23.779Z,44.58
2019-05-19T04:39:53.900Z,46.05
2019-05-19T04:42:23.903Z,47.38
2019-05-19T04:44:53.785Z,44.25
2019-05-19T04:47:23.715Z,43.98
2019-05-19T04:50:01.135Z,41.85
2019-05-19T04:52:31.078Z,39.70
2019-05-19T04:55:01.293Z,39.30
2019-05-19T04:57:31.522Z,40.17
2019-05-19T05:00:01.425Z,41.37
2019-05-19T05:02:31.337Z,39.58
2019-05-19T05:05:01.909Z,41.23
2019-05-19T05:07:32.169Z,42.53
2019-05-19T05:10:02.290Z,40.75
2019-05-19T05:12:32.414Z,41.10
2019-05-19T05:15:02.318Z,42.25
2019-05-19T05:17:32.479Z,41.50
2019-05-19T05:20:02.606Z,41.00
2019-05-19T05:22:32.692Z,44.95
2019-05-19T05:25:02.651Z,42.65
2019-05-19T05:27:32.483Z,43.65
2019-05-19T05:30:02.608Z,41.58
2019-05-19T05:32:32.419Z,41.33
2019-05-19T05:35:02.585Z,39.05
2019-05-19T05:37:32.432Z,39.18
2019-05-19T05:40:02.304Z,37.17
2019-05-19T05:42:32.230Z,38.02
2019-05-19T05:45:02.087Z,38.40
2019-05-19T05:47:31.911Z,35.38
2019-05-19T05:50:01.732Z,38.00
2019-05-19T05:52:38.500Z,36.08
2019-05-19T05:55:03.605Z,37.88
2019-05-19T05:57:33.411Z,38.13
2019-05-19T06:00:05.294Z,38.92
2019-05-19T06:02:35.294Z,37.63
2019-05-19T06:05:06.354Z,37.90
2019-05-19T06:07:36.481Z,38.45
2019-05-19T06:10:08.235Z,38.05
2019-05-19T06:12:39.389Z,38.85
2019-05-19T06:15:09.563Z,39.78
2019-05-19T06:17:39.391Z,38.75
2019-05-19T06:20:09.386Z,40.92
2019-05-19T06:22:54.746Z,38.42
2019-05-19T06:25:11.346Z,39.58
2019-05-19T06:27:41.539Z,39.53
2019-05-19T06:30:11.696Z,40.40
2019-05-19T06:32:46.285Z,41.73
2019-05-19T06:35:16.360Z,42.38
2019-05-19T06:37:46.330Z,41.25
2019-05-19T06:40:16.391Z,43.78
2019-05-19T06:42:46.580Z,43.85
2019-05-19T06:45:16.645Z,44.88
2019-05-19T06:47:46.454Z,43.92
2019-05-19T06:50:16.549Z,45.90
2019-05-19T06:52:46.496Z,46.18
2019-05-19T06:55:16.744Z,45.48
2019-05-19T06:57:46.988Z,45.23
2019-05-19T07:00:18.744Z,44.65
2019-05-19T07:02:48.864Z,45.40
2019-05-19T07:05:20.422Z,44.10
2019-05-19T07:07:50.239Z,44.80
2019-05-19T07:10:20.458Z,44.77
2019-05-19T07:12:50.582Z,45.25
2019-05-19T07:15:20.455Z,43.85
2019-05-19T07:17:50.616Z,46.25
2019-05-19T07:20:20.455Z,44.65
2019-05-19T07:22:50.369Z,46.98
2019-05-19T07:25:20.541Z,46.90
2019-05-19T07:27:50.699Z,47.70
2019-05-19T07:30:20.907Z,45.60
2019-05-19T07:32:51.028Z,46.63
2019-05-19T07:35:20.912Z,49.03
2019-05-19T07:37:50.733Z,49.50
2019-05-19T07:40:20.617Z,47.78
2019-05-19T07:42:50.697Z,49.33
2019-05-19T07:45:21.507Z,50.45
2019-05-19T07:47:51.646Z,52.05
2019-05-19T07:50:21.864Z,51.42
2019-05-19T07:52:51.676Z,52.48
2019-05-19T07:55:21.515Z,51.80
2019-05-19T07:57:51.735Z,52.40
2019-05-19T08:00:21.621Z,52.25
2019-05-19T08:02:51.447Z,47.95
2019-05-19T08:05:21.664Z,48.78
2019-05-19T08:07:51.519Z,48.17
2019-05-19T08:10:22.931Z,47.27
2019-05-19T08:12:52.770Z,45.38
2019-05-19T08:15:23.065Z,43.65
2019-05-19T08:17:53.205Z,46.88
2019-05-19T08:20:23.506Z,47.43
2019-05-19T08:22:53.342Z,45.60
2019-05-19T08:25:23.460Z,43.87
2019-05-19T08:27:53.563Z,45.20
2019-05-19T08:30:23.666Z,46.85
2019-05-19T08:32:53.527Z,46.35
2019-05-19T08:35:23.648Z,46.80
2019-05-19T08:37:53.466Z,43.48
2019-05-19T08:40:23.284Z,41.88
2019-05-19T08:42:53.129Z,38.85
2019-05-19T08:45:23.388Z,40.48
2019-05-19T08:47:53.209Z,38.35
2019-05-19T08:50:23.094Z,41.00
2019-05-19T08:52:53.343Z,41.25
2019-05-19T08:55:23.171Z,42.23
2019-05-19T08:57:53.036Z,41.65
2019-05-19T09:00:23.282Z,39.00
2019-05-19T09:02:53.122Z,37.98
2019-05-19T09:05:22.989Z,39.73
2019-05-19T09:07:52.953Z,39.03
2019-05-19T09:10:22.835Z,41.02
2019-05-19T09:12:52.646Z,40.40
2019-05-19T09:15:22.467Z,34.43
2019-05-19T09:17:54.195Z,39.35
2019-05-19T09:20:23.889Z,35.13
2019-05-19T09:22:54.051Z,34.65
2019-05-19T09:25:23.877Z,36.23
2019-05-19T09:27:53.997Z,35.35
2019-05-19T09:30:24.207Z,36.35
2019-05-19T09:32:54.051Z,36.65
2019-05-19T09:35:23.941Z,37.42
2019-05-19T09:37:53.785Z,37.23
2019-05-19T09:40:26.516Z,35.05
2019-05-19T09:42:55.522Z,33.95
2019-05-19T09:45:25.361Z,31.57
2019-05-19T09:47:55.168Z,31.87
2019-05-19T09:50:26.291Z,29.60
2019-05-19T09:52:56.544Z,31.52
2019-05-19T09:55:26.836Z,36.00
2019-05-19T09:57:56.736Z,36.83
2019-05-19T10:00:26.698Z,37.13
2019-05-19T10:02:56.514Z,36.08
2019-05-19T10:05:26.649Z,32.90
2019-05-19T10:07:56.831Z,32.28
2019-05-19T10:10:32.978Z,31.52
2019-05-19T10:13:03.451Z,32.48
2019-05-19T10:15:33.749Z,32.17
2019-05-19T10:18:03.721Z,33.05
2019-05-19T10:20:33.986Z,30.02
2019-05-19T10:23:03.931Z,30.88
2019-05-19T10:25:34.120Z,32.38
2019-05-19T10:28:04.370Z,30.37
2019-05-19T10:30:34.302Z,32.05
2019-05-19T10:33:04.140Z,30.77
2019-05-19T10:35:34.294Z,30.80
2019-05-19T10:38:04.520Z,28.23
2019-05-19T10:40:34.632Z,28.20
2019-05-19T10:43:04.854Z,27.70
2019-05-19T10:45:34.971Z,28.42
2019-05-19T10:48:04.879Z,29.18
2019-05-19T10:50:35.014Z,29.77
2019-05-19T10:53:05.280Z,27.07
2019-05-19T10:55:37.018Z,24.02
2019-05-19T10:58:07.063Z,25.10
2019-05-19T11:00:37.238Z,25.40
2019-05-19T11:03:07.349Z,21.07
2019-05-19T11:05:37.238Z,17.25
2019-05-19T11:08:07.049Z,15.90
2019-05-19T11:10:36.863Z,9.85
2019-05-19T11:13:06.940Z,9.45
2019-05-19T11:15:36.753Z,10.40
2019-05-19T11:18:06.854Z,10.53
2019-05-19T11:20:36.825Z,9.90
2019-05-19T11:23:06.633Z,10.58
2019-05-19T11:25:50.414Z,9.65
2019-05-19T11:28:09.102Z,10.23
2019-05-19T11:30:39.171Z,9.08
2019-05-19T11:33:09.238Z,11.10
2019-05-19T11:35:39.045Z,9.50
2019-05-19T11:38:08.870Z,9.98
2019-05-19T11:40:38.683Z,9.55
2019-05-19T11:43:08.751Z,12.40
2019-05-19T11:45:38.988Z,11.35
2019-05-19T11:48:09.101Z,11.05
2019-05-19T11:50:42.006Z,11.18
2019-05-19T11:53:11.001Z,9.48
2019-05-19T11:55:41.845Z,12.58
2019-05-19T11:58:13.377Z,12.93
2019-05-19T12:00:44.367Z,12.95
2019-05-19T12:03:15.254Z,13.03
2019-05-19T12:05:45.084Z,13.45
2019-05-19T12:08:15.187Z,14.25
2019-05-19T12:10:45.081Z,10.55
2019-05-19T12:13:14.911Z,11.78
2019-05-19T12:15:44.796Z,10.53
2019-05-19T12:18:14.950Z,10.15
2019-05-19T12:20:44.784Z,11.12
2019-05-19T12:23:14.634Z,10.00
2019-05-19T12:25:44.441Z,8.80
2019-05-19T12:28:14.517Z,9.30
2019-05-19T12:30:44.340Z,8.53
2019-05-19T12:33:14.232Z,9.28
2019-05-19T12:35:44.344Z,10.50
2019-05-19T12:38:14.258Z,10.28
2019-05-19T12:40:44.428Z,9.75
2019-05-19T12:43:14.253Z,9.30
2019-05-19T12:45:44.195Z,10.88
2019-05-19T12:48:14.196Z,12.63
2019-05-19T12:50:44.023Z,11.45
2019-05-19T12:53:14.211Z,12.37
2019-05-19T12:55:44.331Z,11.65
2019-05-19T12:58:14.177Z,11.55
2019-05-19T13:00:44.080Z,9.70
2019-05-19T13:03:15.811Z,9.05
2019-05-19T13:05:45.934Z,10.30
2019-05-19T13:08:15.753Z,10.75
2019-05-19T13:10:46.069Z,9.85
2019-05-19T13:13:15.901Z,10.32
2019-05-19T13:15:45.907Z,9.45
2019-05-19T13:18:22.403Z,9.48
2019-05-19T13:20:53.619Z,10.08
2019-05-19T13:23:23.745Z,10.25
2019-05-19T13:25:54.265Z,8.30
2019-05-19T13:28:24.375Z,8.65
2019-05-19T13:30:54.303Z,8.25
2019-05-19T13:33:24.722Z,9.00
2019-05-19T13:35:54.717Z,8.40
2019-05-19T13:38:24.561Z,10.38
2019-05-19T13:40:54.417Z,9.55
2019-05-19T13:43:26.491Z,8.13
2019-05-19T13:45:55.846Z,9.45
2019-05-19T13:48:25.701Z,8.53
2019-05-19T13:50:55.791Z,10.08
2019-05-19T13:53:26.237Z,9.48
2019-05-19T13:55:56.332Z,10.65
2019-05-19T13:58:26.262Z,12.55
2019-05-19T14:00:56.351Z,11.50
2019-05-19T14:03:26.418Z,12.55
2019-05-19T14:05:56.827Z,13.00
2019-05-19T14:08:27.019Z,14.45
2019-05-19T14:10:57.150Z,14.40
2019-05-19T14:13:27.380Z,14.30
2019-05-19T14:15:57.279Z,11.60
2019-05-19T14:18:27.098Z,12.18
2019-05-19T14:20:56.940Z,12.20
2019-05-19T14:23:26.791Z,11.73
2019-05-19T14:25:56.623Z,11.18
2019-05-19T14:28:26.786Z,12.47
2019-05-19T14:30:58.113Z,12.13
2019-05-19T14:33:27.919Z,13.48
2019-05-19T14:35:58.036Z,12.15
2019-05-19T14:38:28.179Z,11.30
2019-05-19T14:40:58.274Z,10.63
2019-05-19T14:43:33.060Z,10.68
2019-05-19T14:48:32.039Z,11.80
2019-05-19T14:51:01.969Z,12.07
2019-05-19T14:53:33.412Z,11.95
2019-05-19T14:56:03.288Z,10.93
2019-05-19T14:58:33.126Z,10.72
2019-05-19T15:01:02.979Z,11.35
2019-05-19T15:03:32.882Z,10.50
2019-05-19T15:06:03.070Z,8.55
2019-05-19T15:08:32.958Z,4.97
2019-05-19T15:11:02.796Z,4.30
2019-05-19T15:13:33.014Z,3.58
2019-05-19T15:16:03.351Z,2.62
2019-05-19T15:18:33.560Z,2.50
2019-05-19T15:21:03.387Z,2.37
2019-05-19T15:23:33.538Z,2.08
2019-05-19T15:26:03.453Z,2.30
2019-05-19T15:28:33.328Z,1.90
2019-05-19T15:31:03.158Z,1.82
2019-05-19T15:33:38.085Z,1.92
2019-05-19T15:36:06.344Z,1.60
2019-05-19T15:38:36.504Z,1.62
2019-05-19T15:41:06.313Z,2.20
2019-05-19T15:43:36.187Z,2.00
2019-05-19T15:46:06.520Z,1.60
2019-05-19T15:48:36.410Z,2.10
2019-05-19T15:51:06.547Z,1.70
2019-05-19T15:53:36.434Z,1.50
2019-05-19T15:56:06.808Z,2.08
2019-05-19T15:58:36.691Z,1.57
2019-05-19T16:01:06.939Z,2.05
2019-05-19T16:03:37.153Z,1.92
2019-05-19T16:06:07.064Z,2.00
2019-05-19T16:08:36.951Z,1.65
2019-05-19T16:11:07.130Z,2.12
2019-05-19T16:13:37.317Z,2.20
2019-05-19T16:16:07.122Z,2.05
2019-05-19T16:18:37.352Z,2.30
2019-05-19T16:21:07.588Z,2.55
2019-05-19T16:23:37.703Z,2.62
2019-05-19T16:26:07.820Z,2.55
2019-05-19T16:28:37.954Z,2.83
2019-05-19T16:31:08.172Z,2.72
2019-05-19T16:33:38.315Z,2.60
2019-05-19T16:36:08.166Z,2.98
2019-05-19T16:38:38.099Z,2.98
2019-05-19T16:41:08.241Z,3.02
2019-05-19T16:43:38.184Z,3.12
2019-05-19T16:46:08.035Z,3.05
2019-05-19T16:48:38.207Z,3.20
2019-05-19T16:51:08.526Z,3.17
2019-05-19T16:53:38.936Z,4.10
2019-05-19T16:56:09.202Z,5.10
2019-05-19T16:58:45.386Z,4.72
2019-05-19T17:01:10.632Z,5.58
2019-05-19T17:03:40.933Z,6.42
2019-05-19T17:06:11.271Z,6.15
2019-05-19T17:08:41.522Z,7.50
2019-05-19T17:11:18.384Z,7.25
2019-05-19T17:13:43.129Z,6.85
2019-05-19T17:16:13.512Z,7.65
2019-05-19T17:18:43.621Z,7.45
2019-05-19T17:21:13.423Z,7.08
2019-05-19T17:23:43.557Z,7.62
2019-05-19T17:26:13.369Z,7.85
2019-05-19T17:28:43.178Z,8.53
2019-05-19T17:31:12.991Z,9.25
2019-05-19T17:33:42.807Z,10.30
2019-05-19T17:36:12.628Z,10.88
2019-05-19T17:38:42.489Z,11.63
2019-05-19T17:41:12.381Z,12.75
2019-05-19T17:43:42.464Z,12.73
2019-05-19T17:46:12.295Z,12.00
2019-05-19T17:48:42.107Z,12.60
2019-05-19T17:51:11.934Z,11.38
2019-05-19T17:53:42.649Z,12.05
2019-05-19T17:56:13.773Z,10.72
2019-05-19T17:58:44.066Z,10.95
2019-05-19T18:01:14.230Z,11.18
2019-05-19T18:03:45.068Z,10.95
2019-05-19T18:06:15.308Z,11.12
2019-05-19T18:08:45.625Z,10.85
2019-05-19T18:11:15.488Z,10.93
2019-05-19T18:13:45.425Z,11.40
2019-05-19T18:16:15.263Z,12.47
2019-05-19T18:18:45.643Z,12.90
2019-05-19T18:21:15.728Z,15.15
2019-05-19T18:23:46.038Z,15.35
2019-05-19T18:26:16.083Z,17.75
2019-05-19T18:28:46.440Z,18.55
2019-05-19T18:31:16.315Z,20.88
2019-05-19T18:33:50.064Z,21.02
2019-05-19T18:36:20.228Z,21.85
2019-05-19T18:38:50.538Z,21.27
2019-05-19T18:41:20.685Z,24.02
2019-05-19T18:43:50.807Z,23.22
2019-05-19T18:46:21.037Z,24.35
2019-05-19T18:48:50.883Z,24.52
2019-05-19T18:51:20.693Z,26.50
2019-05-19T18:53:50.801Z,25.12
2019-05-19T18:56:20.619Z,26.73
2019-05-19T18:58:50.461Z,25.32
2019-05-19T19:01:20.338Z,25.15
2019-05-19T19:03:52.277Z,25.72
2019-05-19T19:06:22.211Z,24.55
2019-05-19T19:08:52.047Z,25.70
2019-05-19T19:11:22.145Z,27.52
2019-05-19T19:13:52.385Z,27.42
2019-05-19T19:16:22.222Z,27.80
2019-05-19T19:18:52.074Z,29.10
2019-05-19T19:21:22.330Z,28.62
2019-05-19T19:23:52.239Z,31.07
2019-05-19T19:26:22.095Z,31.52
2019-05-19T19:28:52.054Z,29.87
2019-05-19T19:31:22.187Z,32.15
2019-05-19T19:33:52.045Z,32.65
2019-05-19T19:36:21.891Z,32.13
2019-05-19T19:38:51.712Z,32.15
2019-05-19T19:41:21.938Z,33.08
2019-05-19T19:43:52.097Z,35.48
2019-05-19T19:46:21.988Z,34.35
2019-05-19T19:48:52.596Z,35.23
2019-05-19T19:51:22.419Z,34.38
2019-05-19T19:53:52.629Z,35.17
2019-05-19T19:56:22.543Z,34.80
2019-05-19T19:58:52.354Z,37.17
2019-05-19T20:01:22.183Z,37.38
2019-05-19T20:03:52.017Z,34.13
2019-05-19T20:06:21.911Z,35.58
2019-05-19T20:08:51.753Z,34.78
2019-05-19T20:11:21.938Z,34.33
2019-05-19T20:13:51.769Z,35.05
2019-05-19T20:16:21.604Z,36.30
2019-05-19T20:18:51.783Z,34.60
2019-05-19T20:21:21.908Z,34.30
2019-05-19T20:23:51.799Z,33.65
2019-05-19T20:26:21.730Z,35.43
2019-05-19T20:28:51.956Z,34.98
2019-05-19T20:31:22.074Z,33.83
2019-05-19T20:33:52.209Z,33.88
2019-05-19T20:36:22.064Z,34.43
2019-05-19T20:38:51.928Z,33.42
2019-05-19T20:41:23.181Z,35.10
2019-05-19T20:43:53.019Z,35.40
2019-05-19T20:46:22.837Z,34.98
2019-05-19T20:48:52.926Z,34.38
2019-05-19T20:51:23.165Z,33.40
2019-05-19T20:53:53.472Z,33.45
2019-05-19T20:56:23.320Z,34.78
2019-05-19T20:58:53.407Z,34.03
2019-05-19T21:01:23.511Z,34.35
2019-05-19T21:03:54.662Z,33.85
2019-05-19T21:06:24.487Z,35.30
2019-05-19T21:08:54.302Z,33.42
2019-05-19T21:11:24.142Z,33.92
2019-05-19T21:13:54.225Z,34.20
2019-05-19T21:16:24.287Z,32.80
2019-05-19T21:19:11.362Z,32.30
2019-05-19T21:21:41.189Z,34.73
2019-05-19T21:24:11.076Z,32.50
2019-05-19T21:26:41.206Z,34.40
2019-05-19T21:29:11.020Z,34.90
2019-05-19T21:31:41.142Z,34.60
2019-05-19T21:34:11.018Z,34.23
2019-05-19T21:36:40.891Z,35.17
2019-05-19T21:39:10.999Z,36.33
2019-05-19T21:41:41.306Z,36.08
2019-05-19T21:44:11.435Z,34.80
2019-05-19T21:46:41.267Z,35.52
2019-05-19T21:49:11.364Z,36.80
2019-05-19T21:51:41.583Z,35.25
2019-05-19T21:54:11.407Z,35.52
2019-05-19T21:56:41.235Z,35.35
2019-05-19T21:59:11.537Z,35.73
2019-05-19T22:01:41.351Z,37.95
2019-05-19T22:04:11.173Z,36.73
2019-05-19T22:06:42.903Z,38.28
2019-05-19T22:09:12.731Z,37.05
2019-05-19T22:11:42.559Z,39.13
2019-05-19T22:14:12.687Z,41.73
2019-05-19T22:16:42.618Z,41.50
2019-05-19T22:19:15.780Z,40.20
2019-05-19T22:21:44.340Z,41.95
2019-05-19T22:24:14.480Z,43.10
2019-05-19T22:26:44.757Z,43.13
2019-05-19T22:29:15.019Z,42.80
2019-05-19T22:31:45.157Z,44.48
2019-05-19T22:34:15.283Z,42.95
2019-05-19T22:36:45.109Z,45.10
2019-05-19T22:39:14.938Z,46.42
2019-05-19T22:41:44.744Z,44.38
2019-05-19T22:44:14.825Z,47.00
2019-05-19T22:46:44.638Z,46.58
2019-05-19T22:49:14.855Z,45.03
2019-05-19T22:51:44.700Z,45.98
2019-05-19T22:54:14.902Z,47.80
2019-05-19T22:56:44.730Z,50.23
2019-05-19T22:59:19.809Z,51.40
2019-05-19T23:01:51.678Z,50.30
2019-05-19T23:04:17.580Z,50.80
2019-05-19T23:06:47.407Z,48.98
2019-05-19T23:09:17.303Z,48.80
2019-05-19T23:11:47.133Z,49.93
2019-05-19T23:14:17.022Z,47.93
2019-05-19T23:16:46.917Z,48.17
2019-05-19T23:19:16.730Z,47.67
2019-05-19T23:21:46.563Z,47.13
2019-05-19T23:24:16.649Z,46.05
2019-05-19T23:26:46.461Z,45.15
2019-05-19T23:29:16.577Z,46.63
2019-05-19T23:31:46.461Z,45.03
2019-05-19T23:34:16.608Z,48.40
2019-05-19T23:36:47.855Z,50.45
2019-05-19T23:39:18.096Z,50.70
2019-05-19T23:41:48.177Z,53.60
2019-05-19T23:44:18.318Z,53.45
2019-05-19T23:46:48.143Z,59.10
2019-05-19T23:49:18.256Z,60.83
2019-05-19T23:51:48.369Z,62.48
2019-05-19T23:54:18.613Z,59.98
2019-05-19T23:56:48.712Z,62.90
2019-05-19T23:59:18.832Z,64.65
